Golden Girl — WDH7844 — position and weather

sailwx.info

Track history (hours):
 
Tides and Currents Weather Stations Pressure Air Temp Water Temp Dewpoint Dewpoint Depression Visibility Wind Speed Wind Dir Waves Ship Positions

Golden Girl

Owner: Jim and David Enterprises, LLC, Fort Lauderdale, FL. More information available from US FCC via Universal Licensing System and Coast Guard Vessel Documentation Center.

Last reported at 2018-Feb-22 18:34 UTC. Time now 2018-Feb-24 08:02 UTC.
Position N 27°02' W 080°06'.

Length 28 m.

Type: Pleasure craft. MMSI: 367652170.

Date/timePositionNaut miles runAvg speedWind from/ knotsBaromVisibWave heightAir tempDewpointWater temp
2018-Feb-22 18:34N 27°02' W 080°06'1 9.5
2018-Feb-22 18:29N 27°01' W 080°06'4 8.7
2018-Feb-22 18:00N 26°57' W 080°05'3 6.8
2018-Feb-22 17:30N 26°54' W 080°04'33 4.2
2018-Feb-22 09:31N 26°21' W 080°05'0 0.0
2018-Feb-22 09:28N 26°21' W 080°05'0 0.0
2018-Feb-22 08:58N 26°21' W 080°05'0 0.0
2018-Feb-22 08:28N 26°21' W 080°05'0 0.0
2018-Feb-22 07:58N 26°21' W 080°05'0 0.0
2018-Feb-22 06:49N 26°21' W 080°05'0 0.0
2018-Feb-22 04:19N 26°21' W 080°05'0 0.0
2018-Feb-22 03:49N 26°21' W 080°05'0 0.0
2018-Feb-21 22:43N 26°20' W 080°05'4 5.7
2018-Feb-21 22:04N 26°17' W 080°05'1 6.2
2018-Feb-21 21:52N 26°16' W 080°05'2 4.0
2018-Feb-21 21:26N 26°14' W 080°06'3 5.7
2018-Feb-21 20:56N 26°11' W 080°06'3 6.1
2018-Feb-21 20:28N 26°08' W 080°07'2 3.4
2018-Feb-21 19:59N 26°07' W 080°07'4 7.3
2018-Feb-21 19:29N 26°03' W 080°07'2 5.2
2018-Feb-21 19:00N 26°01' W 080°07'4 5.7
2018-Feb-21 18:23N 25°57' W 080°08'3 7.2
2018-Feb-21 18:00N 25°54' W 080°08'3 6.2
2018-Feb-21 17:31N 25°51' W 080°09'2 3.0
2018-Feb-21 16:58N 25°50' W 080°07'0 0.3
2018-Feb-21 16:28N 25°50' W 080°07'1 1.1
2018-Feb-21 16:00N 25°50' W 080°07'0 0.2
2018-Feb-21 15:29N 25°50' W 080°07'0 0.0
2018-Feb-21 14:59N 25°50' W 080°07'0 0.0
2018-Feb-21 14:29N 25°50' W 080°07'0 0.0
2018-Feb-21 14:01N 25°50' W 080°07'0 0.0
2018-Feb-21 13:27N 25°50' W 080°07'0 0.0
2018-Feb-21 13:00N 25°50' W 080°07'0 0.0
2018-Feb-21 12:30N 25°50' W 080°07'0 0.0
2018-Feb-21 12:00N 25°50' W 080°07'0 0.0
2018-Feb-21 11:30N 25°50' W 080°07'0 0.0
2018-Feb-21 11:00N 25°50' W 080°07'0 0.0
2018-Feb-21 10:27N 25°50' W 080°07'0 0.0
2018-Feb-21 10:00N 25°50' W 080°07'0 0.0
2018-Feb-21 09:27N 25°50' W 080°07'0 0.0
2018-Feb-21 09:00N 25°50' W 080°07'0 0.0
2018-Feb-21 08:30N 25°50' W 080°07'0 0.0
2018-Feb-21 07:57N 25°50' W 080°07'0 0.0
2018-Feb-21 07:24N 25°50' W 080°07'0 0.0
2018-Feb-21 07:00N 25°50' W 080°07'0 0.0
2018-Feb-21 06:30N 25°50' W 080°07'0 0.0
2018-Feb-21 05:57N 25°50' W 080°07'0 0.0
2018-Feb-21 05:30N 25°50' W 080°07'0 0.0
2018-Feb-21 05:00N 25°50' W 080°07'0 0.0
2018-Feb-21 04:30N 25°50' W 080°07'0 0.0
2018-Feb-21 03:57N 25°50' W 080°07'0 0.0
2018-Feb-21 03:27N 25°50' W 080°07'0 0.0
2018-Feb-21 03:00N 25°50' W 080°07'0 0.0
2018-Feb-21 02:30N 25°50' W 080°07'0 0.0
2018-Feb-21 02:00N 25°50' W 080°07'0 0.0
2018-Feb-21 01:27N 25°50' W 080°07'0 0.0
2018-Feb-21 01:00N 25°50' W 080°07'0 0.0
2018-Feb-21 00:30N 25°50' W 080°07'0 0.0
2018-Feb-20 23:58N 25°50' W 080°07'0 0.0
2018-Feb-20 23:28N 25°50' W 080°07'0 0.0
2018-Feb-20 22:58N 25°50' W 080°07'0 0.0
2018-Feb-20 22:25N 25°50' W 080°07'0 0.0
2018-Feb-20 21:58N 25°50' W 080°07'0 0.0
2018-Feb-20 21:26N 25°50' W 080°07'0 0.0
2018-Feb-20 20:59N 25°50' W 080°07'0 0.0
2018-Feb-20 20:26N 25°50' W 080°07'0 0.0
2018-Feb-20 19:58N 25°50' W 080°07'0 0.0
2018-Feb-20 19:28N 25°50' W 080°07'0 0.0
2018-Feb-20 18:55N 25°50' W 080°07'0 0.0
2018-Feb-20 18:28N 25°50' W 080°07'0 0.0
2018-Feb-20 17:59N 25°50' W 080°07'0 0.0
2018-Feb-20 17:22N 25°50' W 080°07'0 0.0
2018-Feb-20 16:58N 25°50' W 080°07'0 0.0
2018-Feb-20 16:28N 25°50' W 080°07'0 0.0
2018-Feb-20 15:55N 25°50' W 080°07'0 0.0
2018-Feb-20 15:28N 25°50' W 080°07'0 0.0
2018-Feb-20 14:58N 25°50' W 080°07'0 0.0
2018-Feb-20 14:27N 25°50' W 080°07'0 0.0
2018-Feb-20 13:59N 25°50' W 080°07'0 0.0
2018-Feb-20 13:29N 25°50' W 080°07'0 0.0
2018-Feb-20 12:59N 25°50' W 080°07'0 0.0
2018-Feb-20 12:21N 25°50' W 080°07'0 0.0
2018-Feb-20 11:48N 25°50' W 080°07'0 0.0
2018-Feb-20 11:31N 25°50' W 080°07'0 0.0
2018-Feb-20 10:54N 25°50' W 080°07'0 0.0
2018-Feb-20 10:30N 25°50' W 080°07'0 0.0
2018-Feb-20 10:00N 25°50' W 080°07'0 0.0
2018-Feb-20 09:30N 25°50' W 080°07'0 0.0
2018-Feb-20 09:00N 25°50' W 080°07'0 0.0
2018-Feb-20 08:30N 25°50' W 080°07'0 0.0
2018-Feb-20 07:57N 25°50' W 080°07'0 0.0
2018-Feb-20 07:30N 25°50' W 080°07'0 0.0
2018-Feb-20 07:00N 25°50' W 080°07'0 0.0
2018-Feb-20 06:30N 25°50' W 080°07'0 0.0
2018-Feb-20 05:57N 25°50' W 080°07'0 0.0
2018-Feb-20 05:27N 25°50' W 080°07'0 0.0
2018-Feb-20 05:00N 25°50' W 080°07'0 0.0
2018-Feb-20 04:28N 25°50' W 080°07'0 0.0
2018-Feb-20 03:58N 25°50' W 080°07'0 0.0
2018-Feb-20 03:28N 25°50' W 080°07'0 0.0
2018-Feb-20 02:58N 25°50' W 080°07'0 0.0
2018-Feb-20 02:28N 25°50' W 080°07'0 0.0
2018-Feb-20 01:58N 25°50' W 080°07'0 0.0
2018-Feb-20 01:28N 25°50' W 080°07'0 0.0
2018-Feb-20 00:58N 25°50' W 080°07'0 0.0
2018-Feb-20 00:25N 25°50' W 080°07'0 0.0
2018-Feb-19 23:58N 25°50' W 080°07'0 0.0
2018-Feb-19 23:30N 25°50' W 080°07'0 0.0
2018-Feb-19 22:59N 25°50' W 080°07'0 0.0
2018-Feb-19 22:26N 25°50' W 080°07'0 0.0
2018-Feb-19 21:59N 25°50' W 080°07'0 0.0
2018-Feb-19 21:26N 25°50' W 080°07'0 0.0
2018-Feb-19 20:56N 25°50' W 080°07'0 0.0
2018-Feb-19 20:29N 25°50' W 080°07'0 0.0
2018-Feb-19 19:59N 25°50' W 080°07'0 0.0
2018-Feb-19 19:29N 25°50' W 080°07'0 0.0
2018-Feb-19 18:59N 25°50' W 080°07'0 0.0
2018-Feb-19 18:29N 25°50' W 080°07'0 0.0
2018-Feb-19 17:59N 25°50' W 080°07'0 0.0
2018-Feb-19 17:29N 25°50' W 080°07'0 0.0
2018-Feb-19 16:58N 25°50' W 080°07'0 0.0
2018-Feb-19 16:28N 25°50' W 080°07'0 0.0
2018-Feb-19 15:58N 25°50' W 080°07'0 0.0
2018-Feb-19 15:28N 25°50' W 080°07'0 0.0
2018-Feb-19 14:58N 25°50' W 080°07'0 0.0
2018-Feb-19 14:28N 25°50' W 080°07'0 0.0
2018-Feb-19 13:58N 25°50' W 080°07'0 0.0
2018-Feb-19 13:28N 25°50' W 080°07'0 0.0
2018-Feb-19 12:58N 25°50' W 080°07'0 0.0
2018-Feb-19 12:25N 25°50' W 080°07'0 0.0
2018-Feb-19 11:49N 25°50' W 080°07'0 0.0
2018-Feb-19 11:28N 25°50' W 080°07'0 0.0
2018-Feb-19 10:58N 25°50' W 080°07'0 0.0
2018-Feb-19 10:28N 25°50' W 080°07'0 0.0
2018-Feb-19 09:58N 25°50' W 080°07'0 0.0
2018-Feb-19 09:28N 25°50' W 080°07'0 0.0
2018-Feb-19 08:55N 25°50' W 080°07'0 0.0
2018-Feb-19 08:25N 25°50' W 080°07'0 0.0
2018-Feb-19 07:58N 25°50' W 080°07'0 0.0
2018-Feb-19 07:28N 25°50' W 080°07'0 0.0
2018-Feb-19 06:58N 25°50' W 080°07'0 0.0
2018-Feb-19 06:28N 25°50' W 080°07'0 0.0
2018-Feb-19 05:58N 25°50' W 080°07'0 0.0
2018-Feb-19 05:28N 25°50' W 080°07'0 0.0
2018-Feb-19 04:58N 25°50' W 080°07'0 0.0
2018-Feb-19 04:30N 25°50' W 080°07'0 0.0
2018-Feb-19 03:54N 25°50' W 080°07'0 0.0
2018-Feb-19 03:27N 25°50' W 080°07'0 0.0
2018-Feb-19 03:00N 25°50' W 080°07'0 0.0
2018-Feb-19 02:30N 25°50' W 080°07'0 0.0
2018-Feb-19 01:57N 25°50' W 080°07'0 0.0
2018-Feb-19 01:30N 25°50' W 080°07'0 0.0
2018-Feb-19 01:00N 25°50' W 080°07'0 0.0
2018-Feb-19 00:30N 25°50' W 080°07'0 0.0
2018-Feb-19 00:00N 25°50' W 080°07'0 0.0
2018-Feb-18 23:30N 25°50' W 080°07'0 0.0
2018-Feb-18 23:00N 25°50' W 080°07'0 0.0
2018-Feb-18 22:30N 25°50' W 080°07'0 0.0
2018-Feb-18 22:00N 25°50' W 080°07'0 0.0
2018-Feb-18 21:27N 25°50' W 080°07'0 0.0
2018-Feb-18 21:00N 25°50' W 080°07'0 0.0
2018-Feb-18 20:27N 25°50' W 080°07'0 0.0
2018-Feb-18 20:00N 25°50' W 080°07'0 0.0
2018-Feb-18 19:30N 25°50' W 080°07'0 0.0
2018-Feb-18 18:57N 25°50' W 080°07'0 0.0
2018-Feb-18 18:24N 25°50' W 080°07'0 0.0
2018-Feb-18 17:57N 25°50' W 080°07'0 0.0
2018-Feb-18 17:24N 25°50' W 080°07'0 0.0
2018-Feb-18 16:57N 25°50' W 080°07'0 0.0
2018-Feb-18 16:30N 25°50' W 080°07'0 0.0
2018-Feb-18 15:59N 25°50' W 080°07'0 0.0
2018-Feb-18 15:30N 25°50' W 080°07'0 0.0
2018-Feb-18 15:00N 25°50' W 080°07'0 0.0
2018-Feb-18 14:30N 25°50' W 080°07'0 0.0
2018-Feb-18 14:00N 25°50' W 080°07'0 0.0
2018-Feb-18 13:30N 25°50' W 080°07'0 0.0
2018-Feb-18 13:00N 25°50' W 080°07'0 0.0
2018-Feb-18 12:30N 25°50' W 080°07'0 0.0
2018-Feb-18 11:55N 25°50' W 080°07'0 0.0
2018-Feb-18 11:28N 25°50' W 080°07'0 0.0
2018-Feb-18 10:58N 25°50' W 080°07'0 0.0
2018-Feb-18 10:28N 25°50' W 080°07'0 0.0
2018-Feb-18 09:58N 25°50' W 080°07'0 0.0
2018-Feb-18 09:28N 25°50' W 080°07'0 0.0
2018-Feb-18 08:58N 25°50' W 080°07'0 0.0
2018-Feb-18 08:28N 25°50' W 080°07'0 0.0
2018-Feb-18 07:58N 25°50' W 080°07'0 0.0
2018-Feb-18 07:25N 25°50' W 080°07'0 0.0
2018-Feb-18 06:58N 25°50' W 080°07'0 0.0
2018-Feb-18 06:22N 25°50' W 080°07'0 0.0
2018-Feb-18 05:58N 25°50' W 080°07'0 0.0
2018-Feb-18 05:28N 25°50' W 080°07'0 0.0
2018-Feb-18 04:52N 25°50' W 080°07'0 0.0
2018-Feb-18 04:28N 25°50' W 080°07'0 0.0
2018-Feb-18 03:58N 25°50' W 080°07'0 0.0
2018-Feb-18 03:28N 25°50' W 080°07'0 0.0
2018-Feb-18 02:59N 25°50' W 080°07'0 0.0
2018-Feb-18 02:24N 25°50' W 080°07'0 0.0
2018-Feb-18 02:00N 25°50' W 080°07'0 0.0
2018-Feb-18 01:24N 25°50' W 080°07'0 0.0
2018-Feb-18 00:57N 25°50' W 080°07'0 0.0
2018-Feb-18 00:21N 25°50' W 080°07'0 0.0
2018-Feb-17 23:57N 25°50' W 080°07'0 0.0
2018-Feb-17 23:27N 25°50' W 080°07'0 0.0
2018-Feb-17 22:54N 25°50' W 080°07'0 0.0
2018-Feb-17 22:27N 25°50' W 080°07'0 0.0
2018-Feb-17 21:59N 25°50' W 080°07'0 0.0
2018-Feb-17 21:26N 25°50' W 080°07'0 0.0
2018-Feb-17 20:57N 25°50' W 080°07'0 0.0
2018-Feb-17 20:30N 25°50' W 080°07'0 0.0
2018-Feb-17 20:00N 25°50' W 080°07'0 0.0
2018-Feb-17 19:30N 25°50' W 080°07'0 0.0
2018-Feb-17 19:00N 25°50' W 080°07'0 0.0
2018-Feb-17 18:30N 25°50' W 080°07'0 0.0
2018-Feb-17 18:00N 25°50' W 080°07'0 0.0
2018-Feb-17 17:30N 25°50' W 080°07'0 0.0
2018-Feb-17 17:00N 25°50' W 080°07'0 0.0
2018-Feb-17 16:30N 25°50' W 080°07'0 0.0
2018-Feb-17 16:00N 25°50' W 080°07'0 0.0
2018-Feb-17 15:24N 25°50' W 080°07'0 0.0
2018-Feb-17 14:59N 25°50' W 080°07'0 0.0
2018-Feb-17 14:29N 25°50' W 080°07'0 0.0
2018-Feb-17 13:56N 25°50' W 080°07'0 0.0
2018-Feb-17 13:29N 25°50' W 080°07'0 0.0
2018-Feb-17 12:59N 25°50' W 080°07'0 0.0
2018-Feb-17 12:29N 25°50' W 080°07'0 0.0
2018-Feb-17 11:59N 25°50' W 080°07'0 0.0
2018-Feb-17 11:29N 25°50' W 080°07'0 0.0
2018-Feb-17 10:58N 25°50' W 080°07'0 0.0
2018-Feb-17 10:28N 25°50' W 080°07'0 0.0
2018-Feb-17 09:58N 25°50' W 080°07'0 0.0
2018-Feb-17 09:28N 25°50' W 080°07'0 0.0
2018-Feb-17 08:52N 25°50' W 080°07'0 0.0
2018-Feb-17 08:25N 25°50' W 080°07'0 0.0
2018-Feb-17 07:58N 25°50' W 080°07'0 0.0
2018-Feb-17 07:22N 25°50' W 080°07'0 0.0
2018-Feb-17 06:58N 25°50' W 080°07'0 0.0
2018-Feb-17 06:25N 25°50' W 080°07'0 0.0
2018-Feb-17 05:55N 25°50' W 080°07'0 0.0
2018-Feb-17 05:28N 25°50' W 080°07'0 0.0
2018-Feb-17 04:58N 25°50' W 080°07'0 0.0
2018-Feb-17 04:28N 25°50' W 080°07'0 0.0
2018-Feb-17 03:58N 25°50' W 080°07'0 0.0
2018-Feb-17 03:28N 25°50' W 080°07'0 0.0
2018-Feb-17 02:58N 25°50' W 080°07'0 0.0
2018-Feb-17 02:28N 25°50' W 080°07'0 0.0
2018-Feb-17 01:58N 25°50' W 080°07'0 0.0
2018-Feb-17 01:28N 25°50' W 080°07'0 0.0
2018-Feb-17 00:58N 25°50' W 080°07'0 0.0
2018-Feb-17 00:25N 25°50' W 080°07'0 0.0
2018-Feb-16 23:58N 25°50' W 080°07'0 0.0
2018-Feb-16 23:28N 25°50' W 080°07'0 0.0
2018-Feb-16 22:58N 25°50' W 080°07'0 0.0
2018-Feb-16 22:28N 25°50' W 080°07'0 0.0
2018-Feb-16 21:52N 25°50' W 080°07'0 0.0
2018-Feb-16 21:28N 25°50' W 080°07'0 0.0
2018-Feb-16 20:59N 25°50' W 080°07'0 0.0
2018-Feb-16 20:23N 25°50' W 080°07'0 0.0
2018-Feb-16 19:59N 25°50' W 080°07'0 0.0
2018-Feb-16 19:29N 25°50' W 080°07'0 0.0
2018-Feb-16 18:53N 25°50' W 080°07'0 0.0
2018-Feb-16 18:30N 25°50' W 080°07'0 0.0
2018-Feb-16 17:54N 25°50' W 080°07'0 0.0
2018-Feb-16 17:30N 25°50' W 080°07'0 0.0
2018-Feb-16 16:54N 25°50' W 080°07'0 0.0
2018-Feb-16 16:21N 25°50' W 080°07'0 0.0
2018-Feb-16 15:54N 25°50' W 080°07'0 0.0
2018-Feb-16 15:28N 25°50' W 080°07'0 0.0
2018-Feb-16 14:54N 25°50' W 080°07'0 0.0
2018-Feb-16 14:30N 25°50' W 080°07'0 0.0
2018-Feb-16 13:51N 25°50' W 080°07'0 0.0
2018-Feb-16 13:30N 25°50' W 080°07'0 0.0
2018-Feb-16 12:54N 25°50' W 080°07'0 0.0
2018-Feb-16 12:30N 25°50' W 080°07'0 0.0
2018-Feb-16 11:57N 25°50' W 080°07'0 0.0
2018-Feb-16 11:30N 25°50' W 080°07'0 0.0
2018-Feb-16 10:57N 25°50' W 080°07'0 0.0
2018-Feb-16 10:27N 25°50' W 080°07'0 0.0
2018-Feb-16 09:57N 25°50' W 080°07'0 0.0
2018-Feb-16 09:30N 25°50' W 080°07'0 0.0
2018-Feb-16 08:57N 25°50' W 080°07'0 0.0
2018-Feb-16 08:30N 25°50' W 080°07'0 0.0
2018-Feb-16 08:00N 25°50' W 080°07'0 0.0
2018-Feb-16 07:30N 25°50' W 080°07'0 0.0
2018-Feb-16 07:00N 25°50' W 080°07'0 0.0
2018-Feb-16 06:30N 25°50' W 080°07'0 0.0
2018-Feb-16 05:57N 25°50' W 080°07'0 0.0
2018-Feb-16 05:30N 25°50' W 080°07'0 0.0
2018-Feb-16 04:51N 25°50' W 080°07'0 0.0
2018-Feb-16 04:30N 25°50' W 080°07'0 0.0
2018-Feb-16 04:00N 25°50' W 080°07'0 0.0
2018-Feb-16 03:30N 25°50' W 080°07'0 0.0
2018-Feb-16 03:00N 25°50' W 080°07'0 0.0
2018-Feb-16 02:30N 25°50' W 080°07'0 0.0
2018-Feb-16 02:00N 25°50' W 080°07'0 0.0
2018-Feb-16 01:21N 25°50' W 080°07'0 0.0
2018-Feb-16 00:51N 25°50' W 080°07'0 0.0
2018-Feb-16 00:21N 25°50' W 080°07'0 0.0
2018-Feb-15 23:57N 25°50' W 080°07'0 0.0
2018-Feb-15 23:30N 25°50' W 080°07'0 0.0
2018-Feb-15 22:54N 25°50' W 080°07'0 0.0
2018-Feb-15 22:24N 25°50' W 080°07'0 0.0
2018-Feb-15 22:00N 25°50' W 080°07'0 0.0
2018-Feb-15 21:30N 25°50' W 080°07'0 0.0
2018-Feb-15 20:57N 25°50' W 080°07'0 0.0
2018-Feb-15 20:25N 25°50' W 080°07'0 0.0
2018-Feb-15 19:55N 25°50' W 080°07'0 0.0
2018-Feb-15 19:28N 25°50' W 080°07'0 0.0
2018-Feb-15 18:59N 25°50' W 080°07'0 0.0
2018-Feb-15 18:30N 25°50' W 080°07'0 0.0
2018-Feb-15 18:00N 25°50' W 080°07'0 0.0
2018-Feb-15 17:30N 25°50' W 080°07'0 0.0
2018-Feb-15 16:57N 25°50' W 080°07'0 0.0
2018-Feb-15 16:30N 25°50' W 080°07'0 0.0
2018-Feb-15 16:00N 25°50' W 080°07'0 0.0
2018-Feb-15 15:30N 25°50' W 080°07'0 0.0
2018-Feb-15 15:00N 25°50' W 080°07'0 0.0
2018-Feb-15 14:26N 25°50' W 080°07'0 0.0
2018-Feb-15 13:58N 25°50' W 080°07'0 0.0
2018-Feb-15 13:31N 25°50' W 080°07'0 0.0
2018-Feb-15 12:50N 25°50' W 080°07'0 0.0
2018-Feb-15 12:20N 25°50' W 080°07'0 0.0
2018-Feb-15 11:53N 25°50' W 080°07'0 0.0
2018-Feb-15 11:29N 25°50' W 080°07'0 0.0
2018-Feb-15 10:58N 25°50' W 080°07'0 0.0
2018-Feb-15 10:30N 25°50' W 080°07'0 0.0
2018-Feb-15 10:00N 25°50' W 080°07'0 0.0
2018-Feb-15 09:30N 25°50' W 080°07'0 0.0
2018-Feb-15 08:51N 25°50' W 080°07'0 0.0
2018-Feb-15 08:24N 25°50' W 080°07'0 0.0
2018-Feb-15 08:00N 25°50' W 080°07'0 0.0
2018-Feb-15 07:30N 25°50' W 080°07'0 0.0
2018-Feb-15 07:00N 25°50' W 080°07'0 0.0
2018-Feb-15 06:21N 25°50' W 080°07'0 0.0
2018-Feb-15 05:51N 25°50' W 080°07'0 0.0
2018-Feb-15 05:21N 25°50' W 080°07'2 4.1
2018-Feb-15 04:51N 25°52' W 080°07'2 5.9
2018-Feb-15 04:30N 25°50' W 080°07'0 0.0
2018-Feb-15 03:54N 25°50' W 080°07'0 0.0
2018-Feb-15 03:30N 25°50' W 080°07'0 0.0
2018-Feb-15 02:59N 25°50' W 080°07'0 0.0
2018-Feb-15 02:26N 25°50' W 080°07'0 0.0
2018-Feb-15 01:59N 25°50' W 080°07'0 0.0
2018-Feb-15 01:26N 25°50' W 080°07'0 0.0
2018-Feb-15 00:59N 25°50' W 080°07'0 0.0
2018-Feb-15 00:26N 25°50' W 080°07'0 0.0
2018-Feb-14 23:56N 25°50' W 080°07'0 0.0
2018-Feb-14 23:29N 25°50' W 080°07'0 0.0
2018-Feb-14 22:59N 25°50' W 080°07'0 0.0
2018-Feb-14 22:29N 25°50' W 080°07'0 0.0
2018-Feb-14 21:56N 25°50' W 080°07'0 0.0
2018-Feb-14 21:31N 25°50' W 080°07'0 0.0
2018-Feb-14 21:00N 25°50' W 080°07'0 0.0
2018-Feb-14 20:31N 25°50' W 080°07'0 0.0
2018-Feb-14 20:00N 25°50' W 080°07'0 0.0
2018-Feb-14 19:31N 25°50' W 080°07'0 0.0
2018-Feb-14 18:58N 25°50' W 080°07'0 0.0
2018-Feb-14 18:30N 25°50' W 080°07'0 0.0
2018-Feb-14 17:58N 25°50' W 080°07'0 0.0
2018-Feb-14 17:31N 25°50' W 080°07'0 0.0
2018-Feb-14 16:52N 25°50' W 080°07'0 0.0
2018-Feb-14 16:25N 25°50' W 080°07'0 0.0
2018-Feb-14 15:55N 25°50' W 080°07'0 0.0
2018-Feb-14 15:28N 25°50' W 080°07'0 0.0
2018-Feb-14 15:01N 25°50' W 080°07'0 0.0
2018-Feb-14 14:31N 25°50' W 080°07'0 0.0
2018-Feb-14 14:00N 25°50' W 080°07'0 0.0
2018-Feb-14 13:28N 25°50' W 080°07'0 0.0
2018-Feb-14 12:56N 25°50' W 080°07'0 0.0
2018-Feb-14 12:29N 25°50' W 080°07'0 0.0
2018-Feb-14 11:59N 25°50' W 080°07'0 0.0
2018-Feb-14 11:29N 25°50' W 080°07'0 0.0
2018-Feb-14 10:56N 25°50' W 080°07'0 0.0
2018-Feb-14 10:29N 25°50' W 080°07'0 0.0
2018-Feb-14 09:59N 25°50' W 080°07'0 0.0
2018-Feb-14 09:29N 25°50' W 080°07'0 0.0
2018-Feb-14 08:59N 25°50' W 080°07'0 0.0
2018-Feb-14 08:26N 25°50' W 080°07'0 0.0
2018-Feb-14 07:59N 25°50' W 080°07'0 0.0
2018-Feb-14 07:26N 25°50' W 080°07'0 0.0
2018-Feb-14 06:59N 25°50' W 080°07'0 0.0
2018-Feb-14 06:29N 25°50' W 080°07'0 0.0
2018-Feb-14 05:59N 25°50' W 080°07'0 0.0
2018-Feb-14 05:29N 25°50' W 080°07'0 0.0
2018-Feb-14 04:56N 25°50' W 080°07'0 0.0
2018-Feb-14 04:29N 25°50' W 080°07'0 0.0
2018-Feb-14 03:59N 25°50' W 080°07'0 0.0
2018-Feb-14 03:26N 25°50' W 080°07'0 0.0
2018-Feb-14 02:59N 25°50' W 080°07'0 0.0
2018-Feb-14 02:26N 25°50' W 080°07'0 0.0
2018-Feb-14 01:59N 25°50' W 080°07'0 0.0
2018-Feb-14 01:29N 25°50' W 080°07'0 0.0
2018-Feb-14 00:59N 25°50' W 080°07'0 0.0
2018-Feb-14 00:29N 25°50' W 080°07'0 0.0
2018-Feb-13 23:59N 25°50' W 080°07'0 0.0
2018-Feb-13 23:29N 25°50' W 080°07'0 0.0
2018-Feb-13 22:59N 25°50' W 080°07'0 0.0
2018-Feb-13 22:29N 25°50' W 080°07'0 0.0
2018-Feb-13 21:56N 25°50' W 080°07'0 0.0
2018-Feb-13 21:29N 25°50' W 080°07'0 0.0
2018-Feb-13 20:59N 25°50' W 080°07'0 0.0
2018-Feb-13 20:29N 25°50' W 080°07'0 0.0
2018-Feb-13 19:59N 25°50' W 080°07'0 0.0
2018-Feb-13 19:29N 25°50' W 080°07'0 0.0
2018-Feb-13 18:50N 25°50' W 080°07'0 0.0
2018-Feb-13 18:26N 25°50' W 080°07'0 0.0
2018-Feb-13 17:56N 25°50' W 080°07'0 0.0
2018-Feb-13 17:29N 25°50' W 080°07'0 0.0
2018-Feb-13 16:55N 25°50' W 080°07'0 0.0
2018-Feb-13 16:29N 25°50' W 080°07'0 0.0
2018-Feb-13 15:52N 25°50' W 080°07'0 0.0
2018-Feb-13 15:28N 25°50' W 080°07'0 0.0
2018-Feb-13 14:55N 25°50' W 080°07'0 0.0
2018-Feb-13 14:22N 25°50' W 080°07'0 0.0
2018-Feb-13 13:52N 25°50' W 080°07'0 0.0
2018-Feb-13 13:28N 25°50' W 080°07'0 0.0
2018-Feb-13 12:58N 25°50' W 080°07'0 0.0
2018-Feb-13 12:28N 25°50' W 080°07'0 0.0
2018-Feb-13 11:55N 25°50' W 080°07'0 0.0
2018-Feb-13 11:25N 25°50' W 080°07'0 0.0
2018-Feb-13 10:55N 25°50' W 080°07'0 0.0
2018-Feb-13 10:28N 25°50' W 080°07'0 0.0
2018-Feb-13 09:58N 25°50' W 080°07'0 0.0
2018-Feb-13 09:28N 25°50' W 080°07'0 0.0
2018-Feb-13 08:58N 25°50' W 080°07'0 0.0
2018-Feb-13 08:25N 25°50' W 080°07'0 0.0
2018-Feb-13 07:58N 25°50' W 080°07'0 0.0
2018-Feb-13 07:28N 25°50' W 080°07'0 0.0
2018-Feb-13 06:58N 25°50' W 080°07'0 0.0
2018-Feb-13 06:28N 25°50' W 080°07'0 0.0
2018-Feb-13 05:58N 25°50' W 080°07'0 0.0
2018-Feb-13 05:28N 25°50' W 080°07'0 0.0
2018-Feb-13 04:58N 25°50' W 080°07'0 0.0
2018-Feb-13 04:22N 25°50' W 080°07'0 0.0
2018-Feb-13 03:58N 25°50' W 080°07'0 0.0
2018-Feb-13 03:19N 25°50' W 080°07'0 0.0
2018-Feb-13 02:58N 25°50' W 080°07'0 0.0
2018-Feb-13 02:25N 25°50' W 080°07'0 0.0
2018-Feb-13 01:58N 25°50' W 080°07'0 0.0
2018-Feb-13 01:22N 25°50' W 080°07'0 0.0
2018-Feb-13 00:59N 25°50' W 080°07'0 0.0
2018-Feb-13 00:29N 25°50' W 080°07'0 0.0
2018-Feb-12 23:53N 25°50' W 080°07'0 0.0
2018-Feb-12 23:26N 25°50' W 080°07'0 0.0
2018-Feb-12 22:59N 25°50' W 080°07'0 0.0
2018-Feb-12 22:29N 25°50' W 080°07'0 0.0
2018-Feb-12 22:00N 25°50' W 080°07'0 0.0
2018-Feb-12 21:30N 25°50' W 080°07'0 0.0
2018-Feb-12 20:59N 25°50' W 080°07'0 0.0
2018-Feb-12 20:29N 25°50' W 080°07'0 0.0
2018-Feb-12 19:56N 25°50' W 080°07'0 0.0
2018-Feb-12 19:23N 25°50' W 080°07'0 0.0
2018-Feb-12 18:56N 25°50' W 080°07'  
Track history (hours):
 
Tides and Currents Weather Stations Pressure Air Temp Water Temp Dewpoint Dewpoint Depression Visibility Wind Speed Wind Dir Waves Ship Positions

Golden Girl

Owner: Jim and David Enterprises, LLC, Fort Lauderdale, FL. More information available from US FCC via Universal Licensing System and Coast Guard Vessel Documentation Center.

Last reported at 2018-Feb-22 18:34 UTC. Time now 2018-Feb-24 08:02 UTC.
Position N 27°02' W 080°06'.

Length 28 m.

Type: Pleasure craft. MMSI: 367652170.

Date/timePositionNaut miles runAvg speedWind from/ knotsBaromVisibWave heightAir tempDewpointWater temp
2018-Feb-22 18:34N 27°02' W 080°06'1 9.5
2018-Feb-22 18:29N 27°01' W 080°06'4 8.7
2018-Feb-22 18:00N 26°57' W 080°05'3 6.8
2018-Feb-22 17:30N 26°54' W 080°04'33 4.2
2018-Feb-22 09:31N 26°21' W 080°05'0 0.0
2018-Feb-22 09:28N 26°21' W 080°05'0 0.0
2018-Feb-22 08:58N 26°21' W 080°05'0 0.0
2018-Feb-22 08:28N 26°21' W 080°05'0 0.0
2018-Feb-22 07:58N 26°21' W 080°05'0 0.0
2018-Feb-22 06:49N 26°21' W 080°05'0 0.0
2018-Feb-22 04:19N 26°21' W 080°05'0 0.0
2018-Feb-22 03:49N 26°21' W 080°05'0 0.0
2018-Feb-21 22:43N 26°20' W 080°05'4 5.7
2018-Feb-21 22:04N 26°17' W 080°05'1 6.2
2018-Feb-21 21:52N 26°16' W 080°05'2 4.0
2018-Feb-21 21:26N 26°14' W 080°06'3 5.7
2018-Feb-21 20:56N 26°11' W 080°06'3 6.1
2018-Feb-21 20:28N 26°08' W 080°07'2 3.4
2018-Feb-21 19:59N 26°07' W 080°07'4 7.3
2018-Feb-21 19:29N 26°03' W 080°07'2 5.2
2018-Feb-21 19:00N 26°01' W 080°07'4 5.7
2018-Feb-21 18:23N 25°57' W 080°08'3 7.2
2018-Feb-21 18:00N 25°54' W 080°08'3 6.2
2018-Feb-21 17:31N 25°51' W 080°09'2 3.0
2018-Feb-21 16:58N 25°50' W 080°07'0 0.3
2018-Feb-21 16:28N 25°50' W 080°07'1 1.1
2018-Feb-21 16:00N 25°50' W 080°07'0 0.2
2018-Feb-21 15:29N 25°50' W 080°07'0 0.0
2018-Feb-21 14:59N 25°50' W 080°07'0 0.0
2018-Feb-21 14:29N 25°50' W 080°07'0 0.0
2018-Feb-21 14:01N 25°50' W 080°07'0 0.0
2018-Feb-21 13:27N 25°50' W 080°07'0 0.0
2018-Feb-21 13:00N 25°50' W 080°07'0 0.0
2018-Feb-21 12:30N 25°50' W 080°07'0 0.0
2018-Feb-21 12:00N 25°50' W 080°07'0 0.0
2018-Feb-21 11:30N 25°50' W 080°07'0 0.0
2018-Feb-21 11:00N 25°50' W 080°07'0 0.0
2018-Feb-21 10:27N 25°50' W 080°07'0 0.0
2018-Feb-21 10:00N 25°50' W 080°07'0 0.0
2018-Feb-21 09:27N 25°50' W 080°07'0 0.0
2018-Feb-21 09:00N 25°50' W 080°07'0 0.0
2018-Feb-21 08:30N 25°50' W 080°07'0 0.0
2018-Feb-21 07:57N 25°50' W 080°07'0 0.0
2018-Feb-21 07:24N 25°50' W 080°07'0 0.0
2018-Feb-21 07:00N 25°50' W 080°07'0 0.0
2018-Feb-21 06:30N 25°50' W 080°07'0 0.0
2018-Feb-21 05:57N 25°50' W 080°07'0 0.0
2018-Feb-21 05:30N 25°50' W 080°07'0 0.0
2018-Feb-21 05:00N 25°50' W 080°07'0 0.0
2018-Feb-21 04:30N 25°50' W 080°07'0 0.0
2018-Feb-21 03:57N 25°50' W 080°07'0 0.0
2018-Feb-21 03:27N 25°50' W 080°07'0 0.0
2018-Feb-21 03:00N 25°50' W 080°07'0 0.0
2018-Feb-21 02:30N 25°50' W 080°07'0 0.0
2018-Feb-21 02:00N 25°50' W 080°07'0 0.0
2018-Feb-21 01:27N 25°50' W 080°07'0 0.0
2018-Feb-21 01:00N 25°50' W 080°07'0 0.0
2018-Feb-21 00:30N 25°50' W 080°07'0 0.0
2018-Feb-20 23:58N 25°50' W 080°07'0 0.0
2018-Feb-20 23:28N 25°50' W 080°07'0 0.0
2018-Feb-20 22:58N 25°50' W 080°07'0 0.0
2018-Feb-20 22:25N 25°50' W 080°07'0 0.0
2018-Feb-20 21:58N 25°50' W 080°07'0 0.0
2018-Feb-20 21:26N 25°50' W 080°07'0 0.0
2018-Feb-20 20:59N 25°50' W 080°07'0 0.0
2018-Feb-20 20:26N 25°50' W 080°07'0 0.0
2018-Feb-20 19:58N 25°50' W 080°07'0 0.0
2018-Feb-20 19:28N 25°50' W 080°07'0 0.0
2018-Feb-20 18:55N 25°50' W 080°07'0 0.0
2018-Feb-20 18:28N 25°50' W 080°07'0 0.0
2018-Feb-20 17:59N 25°50' W 080°07'0 0.0
2018-Feb-20 17:22N 25°50' W 080°07'0 0.0
2018-Feb-20 16:58N 25°50' W 080°07'0 0.0
2018-Feb-20 16:28N 25°50' W 080°07'0 0.0
2018-Feb-20 15:55N 25°50' W 080°07'0 0.0
2018-Feb-20 15:28N 25°50' W 080°07'0 0.0
2018-Feb-20 14:58N 25°50' W 080°07'0 0.0
2018-Feb-20 14:27N 25°50' W 080°07'0 0.0
2018-Feb-20 13:59N 25°50' W 080°07'0 0.0
2018-Feb-20 13:29N 25°50' W 080°07'0 0.0
2018-Feb-20 12:59N 25°50' W 080°07'0 0.0
2018-Feb-20 12:21N 25°50' W 080°07'0 0.0
2018-Feb-20 11:48N 25°50' W 080°07'0 0.0
2018-Feb-20 11:31N 25°50' W 080°07'0 0.0
2018-Feb-20 10:54N 25°50' W 080°07'0 0.0
2018-Feb-20 10:30N 25°50' W 080°07'0 0.0
2018-Feb-20 10:00N 25°50' W 080°07'0 0.0
2018-Feb-20 09:30N 25°50' W 080°07'0 0.0
2018-Feb-20 09:00N 25°50' W 080°07'0 0.0
2018-Feb-20 08:30N 25°50' W 080°07'0 0.0
2018-Feb-20 07:57N 25°50' W 080°07'0 0.0
2018-Feb-20 07:30N 25°50' W 080°07'0 0.0
2018-Feb-20 07:00N 25°50' W 080°07'0 0.0
2018-Feb-20 06:30N 25°50' W 080°07'0 0.0
2018-Feb-20 05:57N 25°50' W 080°07'0 0.0
2018-Feb-20 05:27N 25°50' W 080°07'0 0.0
2018-Feb-20 05:00N 25°50' W 080°07'0 0.0
2018-Feb-20 04:28N 25°50' W 080°07'0 0.0
2018-Feb-20 03:58N 25°50' W 080°07'0 0.0
2018-Feb-20 03:28N 25°50' W 080°07'0 0.0
2018-Feb-20 02:58N 25°50' W 080°07'0 0.0
2018-Feb-20 02:28N 25°50' W 080°07'0 0.0
2018-Feb-20 01:58N 25°50' W 080°07'0 0.0
2018-Feb-20 01:28N 25°50' W 080°07'0 0.0
2018-Feb-20 00:58N 25°50' W 080°07'0 0.0
2018-Feb-20 00:25N 25°50' W 080°07'0 0.0
2018-Feb-19 23:58N 25°50' W 080°07'0 0.0
2018-Feb-19 23:30N 25°50' W 080°07'0 0.0
2018-Feb-19 22:59N 25°50' W 080°07'0 0.0
2018-Feb-19 22:26N 25°50' W 080°07'0 0.0
2018-Feb-19 21:59N 25°50' W 080°07'0 0.0
2018-Feb-19 21:26N 25°50' W 080°07'0 0.0
2018-Feb-19 20:56N 25°50' W 080°07'0 0.0
2018-Feb-19 20:29N 25°50' W 080°07'0 0.0
2018-Feb-19 19:59N 25°50' W 080°07'0 0.0
2018-Feb-19 19:29N 25°50' W 080°07'0 0.0
2018-Feb-19 18:59N 25°50' W 080°07'0 0.0
2018-Feb-19 18:29N 25°50' W 080°07'0 0.0
2018-Feb-19 17:59N 25°50' W 080°07'0 0.0
2018-Feb-19 17:29N 25°50' W 080°07'0 0.0
2018-Feb-19 16:58N 25°50' W 080°07'0 0.0
2018-Feb-19 16:28N 25°50' W 080°07'0 0.0
2018-Feb-19 15:58N 25°50' W 080°07'0 0.0
2018-Feb-19 15:28N 25°50' W 080°07'0 0.0
2018-Feb-19 14:58N 25°50' W 080°07'0 0.0
2018-Feb-19 14:28N 25°50' W 080°07'0 0.0
2018-Feb-19 13:58N 25°50' W 080°07'0 0.0
2018-Feb-19 13:28N 25°50' W 080°07'0 0.0
2018-Feb-19 12:58N 25°50' W 080°07'0 0.0
2018-Feb-19 12:25N 25°50' W 080°07'0 0.0
2018-Feb-19 11:49N 25°50' W 080°07'0 0.0
2018-Feb-19 11:28N 25°50' W 080°07'0 0.0
2018-Feb-19 10:58N 25°50' W 080°07'0 0.0
2018-Feb-19 10:28N 25°50' W 080°07'0 0.0
2018-Feb-19 09:58N 25°50' W 080°07'0 0.0
2018-Feb-19 09:28N 25°50' W 080°07'0 0.0
2018-Feb-19 08:55N 25°50' W 080°07'0 0.0
2018-Feb-19 08:25N 25°50' W 080°07'0 0.0
2018-Feb-19 07:58N 25°50' W 080°07'0 0.0
2018-Feb-19 07:28N 25°50' W 080°07'0 0.0
2018-Feb-19 06:58N 25°50' W 080°07'0 0.0
2018-Feb-19 06:28N 25°50' W 080°07'0 0.0
2018-Feb-19 05:58N 25°50' W 080°07'0 0.0
2018-Feb-19 05:28N 25°50' W 080°07'0 0.0
2018-Feb-19 04:58N 25°50' W 080°07'0 0.0
2018-Feb-19 04:30N 25°50' W 080°07'0 0.0
2018-Feb-19 03:54N 25°50' W 080°07'0 0.0
2018-Feb-19 03:27N 25°50' W 080°07'0 0.0
2018-Feb-19 03:00N 25°50' W 080°07'0 0.0
2018-Feb-19 02:30N 25°50' W 080°07'0 0.0
2018-Feb-19 01:57N 25°50' W 080°07'0 0.0
2018-Feb-19 01:30N 25°50' W 080°07'0 0.0
2018-Feb-19 01:00N 25°50' W 080°07'0 0.0
2018-Feb-19 00:30N 25°50' W 080°07'0 0.0
2018-Feb-19 00:00N 25°50' W 080°07'0 0.0
2018-Feb-18 23:30N 25°50' W 080°07'0 0.0
2018-Feb-18 23:00N 25°50' W 080°07'0 0.0
2018-Feb-18 22:30N 25°50' W 080°07'0 0.0
2018-Feb-18 22:00N 25°50' W 080°07'0 0.0
2018-Feb-18 21:27N 25°50' W 080°07'0 0.0
2018-Feb-18 21:00N 25°50' W 080°07'0 0.0
2018-Feb-18 20:27N 25°50' W 080°07'0 0.0
2018-Feb-18 20:00N 25°50' W 080°07'0 0.0
2018-Feb-18 19:30N 25°50' W 080°07'0 0.0
2018-Feb-18 18:57N 25°50' W 080°07'0 0.0
2018-Feb-18 18:24N 25°50' W 080°07'0 0.0
2018-Feb-18 17:57N 25°50' W 080°07'0 0.0
2018-Feb-18 17:24N 25°50' W 080°07'0 0.0
2018-Feb-18 16:57N 25°50' W 080°07'0 0.0
2018-Feb-18 16:30N 25°50' W 080°07'0 0.0
2018-Feb-18 15:59N 25°50' W 080°07'0 0.0
2018-Feb-18 15:30N 25°50' W 080°07'0 0.0
2018-Feb-18 15:00N 25°50' W 080°07'0 0.0
2018-Feb-18 14:30N 25°50' W 080°07'0 0.0
2018-Feb-18 14:00N 25°50' W 080°07'0 0.0
2018-Feb-18 13:30N 25°50' W 080°07'0 0.0
2018-Feb-18 13:00N 25°50' W 080°07'0 0.0
2018-Feb-18 12:30N 25°50' W 080°07'0 0.0
2018-Feb-18 11:55N 25°50' W 080°07'0 0.0
2018-Feb-18 11:28N 25°50' W 080°07'0 0.0
2018-Feb-18 10:58N 25°50' W 080°07'0 0.0
2018-Feb-18 10:28N 25°50' W 080°07'0 0.0
2018-Feb-18 09:58N 25°50' W 080°07'0 0.0
2018-Feb-18 09:28N 25°50' W 080°07'0 0.0
2018-Feb-18 08:58N 25°50' W 080°07'0 0.0
2018-Feb-18 08:28N 25°50' W 080°07'0 0.0
2018-Feb-18 07:58N 25°50' W 080°07'0 0.0
2018-Feb-18 07:25N 25°50' W 080°07'0 0.0
2018-Feb-18 06:58N 25°50' W 080°07'0 0.0
2018-Feb-18 06:22N 25°50' W 080°07'0 0.0
2018-Feb-18 05:58N 25°50' W 080°07'0 0.0
2018-Feb-18 05:28N 25°50' W 080°07'0 0.0
2018-Feb-18 04:52N 25°50' W 080°07'0 0.0
2018-Feb-18 04:28N 25°50' W 080°07'0 0.0
2018-Feb-18 03:58N 25°50' W 080°07'0 0.0
2018-Feb-18 03:28N 25°50' W 080°07'0 0.0
2018-Feb-18 02:59N 25°50' W 080°07'0 0.0
2018-Feb-18 02:24N 25°50' W 080°07'0 0.0
2018-Feb-18 02:00N 25°50' W 080°07'0 0.0
2018-Feb-18 01:24N 25°50' W 080°07'0 0.0
2018-Feb-18 00:57N 25°50' W 080°07'0 0.0
2018-Feb-18 00:21N 25°50' W 080°07'0 0.0
2018-Feb-17 23:57N 25°50' W 080°07'0 0.0
2018-Feb-17 23:27N 25°50' W 080°07'0 0.0
2018-Feb-17 22:54N 25°50' W 080°07'0 0.0
2018-Feb-17 22:27N 25°50' W 080°07'0 0.0
2018-Feb-17 21:59N 25°50' W 080°07'0 0.0
2018-Feb-17 21:26N 25°50' W 080°07'0 0.0
2018-Feb-17 20:57N 25°50' W 080°07'0 0.0
2018-Feb-17 20:30N 25°50' W 080°07'0 0.0
2018-Feb-17 20:00N 25°50' W 080°07'0 0.0
2018-Feb-17 19:30N 25°50' W 080°07'0 0.0
2018-Feb-17 19:00N 25°50' W 080°07'0 0.0
2018-Feb-17 18:30N 25°50' W 080°07'0 0.0
2018-Feb-17 18:00N 25°50' W 080°07'0 0.0
2018-Feb-17 17:30N 25°50' W 080°07'0 0.0
2018-Feb-17 17:00N 25°50' W 080°07'0 0.0
2018-Feb-17 16:30N 25°50' W 080°07'0 0.0
2018-Feb-17 16:00N 25°50' W 080°07'0 0.0
2018-Feb-17 15:24N 25°50' W 080°07'0 0.0
2018-Feb-17 14:59N 25°50' W 080°07'0 0.0
2018-Feb-17 14:29N 25°50' W 080°07'0 0.0
2018-Feb-17 13:56N 25°50' W 080°07'0 0.0
2018-Feb-17 13:29N 25°50' W 080°07'0 0.0
2018-Feb-17 12:59N 25°50' W 080°07'0 0.0
2018-Feb-17 12:29N 25°50' W 080°07'0 0.0
2018-Feb-17 11:59N 25°50' W 080°07'0 0.0
2018-Feb-17 11:29N 25°50' W 080°07'0 0.0
2018-Feb-17 10:58N 25°50' W 080°07'0 0.0
2018-Feb-17 10:28N 25°50' W 080°07'0 0.0
2018-Feb-17 09:58N 25°50' W 080°07'0 0.0
2018-Feb-17 09:28N 25°50' W 080°07'0 0.0
2018-Feb-17 08:52N 25°50' W 080°07'0 0.0
2018-Feb-17 08:25N 25°50' W 080°07'0 0.0
2018-Feb-17 07:58N 25°50' W 080°07'0 0.0
2018-Feb-17 07:22N 25°50' W 080°07'0 0.0
2018-Feb-17 06:58N 25°50' W 080°07'0 0.0
2018-Feb-17 06:25N 25°50' W 080°07'0 0.0
2018-Feb-17 05:55N 25°50' W 080°07'0 0.0
2018-Feb-17 05:28N 25°50' W 080°07'0 0.0
2018-Feb-17 04:58N 25°50' W 080°07'0 0.0
2018-Feb-17 04:28N 25°50' W 080°07'0 0.0
2018-Feb-17 03:58N 25°50' W 080°07'0 0.0
2018-Feb-17 03:28N 25°50' W 080°07'0 0.0
2018-Feb-17 02:58N 25°50' W 080°07'0 0.0
2018-Feb-17 02:28N 25°50' W 080°07'0 0.0
2018-Feb-17 01:58N 25°50' W 080°07'0 0.0
2018-Feb-17 01:28N 25°50' W 080°07'0 0.0
2018-Feb-17 00:58N 25°50' W 080°07'0 0.0
2018-Feb-17 00:25N 25°50' W 080°07'0 0.0
2018-Feb-16 23:58N 25°50' W 080°07'0 0.0
2018-Feb-16 23:28N 25°50' W 080°07'0 0.0
2018-Feb-16 22:58N 25°50' W 080°07'0 0.0
2018-Feb-16 22:28N 25°50' W 080°07'0 0.0
2018-Feb-16 21:52N 25°50' W 080°07'0 0.0
2018-Feb-16 21:28N 25°50' W 080°07'0 0.0
2018-Feb-16 20:59N 25°50' W 080°07'0 0.0
2018-Feb-16 20:23N 25°50' W 080°07'0 0.0
2018-Feb-16 19:59N 25°50' W 080°07'0 0.0
2018-Feb-16 19:29N 25°50' W 080°07'0 0.0
2018-Feb-16 18:53N 25°50' W 080°07'0 0.0
2018-Feb-16 18:30N 25°50' W 080°07'0 0.0
2018-Feb-16 17:54N 25°50' W 080°07'0 0.0
2018-Feb-16 17:30N 25°50' W 080°07'0 0.0
2018-Feb-16 16:54N 25°50' W 080°07'0 0.0
2018-Feb-16 16:21N 25°50' W 080°07'0 0.0
2018-Feb-16 15:54N 25°50' W 080°07'0 0.0
2018-Feb-16 15:28N 25°50' W 080°07'0 0.0
2018-Feb-16 14:54N 25°50' W 080°07'0 0.0
2018-Feb-16 14:30N 25°50' W 080°07'0 0.0
2018-Feb-16 13:51N 25°50' W 080°07'0 0.0
2018-Feb-16 13:30N 25°50' W 080°07'0 0.0
2018-Feb-16 12:54N 25°50' W 080°07'0 0.0
2018-Feb-16 12:30N 25°50' W 080°07'0 0.0
2018-Feb-16 11:57N 25°50' W 080°07'0 0.0
2018-Feb-16 11:30N 25°50' W 080°07'0 0.0
2018-Feb-16 10:57N 25°50' W 080°07'0 0.0
2018-Feb-16 10:27N 25°50' W 080°07'0 0.0
2018-Feb-16 09:57N 25°50' W 080°07'0 0.0
2018-Feb-16 09:30N 25°50' W 080°07'0 0.0
2018-Feb-16 08:57N 25°50' W 080°07'0 0.0
2018-Feb-16 08:30N 25°50' W 080°07'0 0.0
2018-Feb-16 08:00N 25°50' W 080°07'0 0.0
2018-Feb-16 07:30N 25°50' W 080°07'0 0.0
2018-Feb-16 07:00N 25°50' W 080°07'0 0.0
2018-Feb-16 06:30N 25°50' W 080°07'0 0.0
2018-Feb-16 05:57N 25°50' W 080°07'0 0.0
2018-Feb-16 05:30N 25°50' W 080°07'0 0.0
2018-Feb-16 04:51N 25°50' W 080°07'0 0.0
2018-Feb-16 04:30N 25°50' W 080°07'0 0.0
2018-Feb-16 04:00N 25°50' W 080°07'0 0.0
2018-Feb-16 03:30N 25°50' W 080°07'0 0.0
2018-Feb-16 03:00N 25°50' W 080°07'0 0.0
2018-Feb-16 02:30N 25°50' W 080°07'0 0.0
2018-Feb-16 02:00N 25°50' W 080°07'0 0.0
2018-Feb-16 01:21N 25°50' W 080°07'0 0.0
2018-Feb-16 00:51N 25°50' W 080°07'0 0.0
2018-Feb-16 00:21N 25°50' W 080°07'0 0.0
2018-Feb-15 23:57N 25°50' W 080°07'0 0.0
2018-Feb-15 23:30N 25°50' W 080°07'0 0.0
2018-Feb-15 22:54N 25°50' W 080°07'0 0.0
2018-Feb-15 22:24N 25°50' W 080°07'0 0.0
2018-Feb-15 22:00N 25°50' W 080°07'0 0.0
2018-Feb-15 21:30N 25°50' W 080°07'0 0.0
2018-Feb-15 20:57N 25°50' W 080°07'0 0.0
2018-Feb-15 20:25N 25°50' W 080°07'0 0.0
2018-Feb-15 19:55N 25°50' W 080°07'0 0.0
2018-Feb-15 19:28N 25°50' W 080°07'0 0.0
2018-Feb-15 18:59N 25°50' W 080°07'0 0.0
2018-Feb-15 18:30N 25°50' W 080°07'0 0.0
2018-Feb-15 18:00N 25°50' W 080°07'0 0.0
2018-Feb-15 17:30N 25°50' W 080°07'0 0.0
2018-Feb-15 16:57N 25°50' W 080°07'0 0.0
2018-Feb-15 16:30N 25°50' W 080°07'0 0.0
2018-Feb-15 16:00N 25°50' W 080°07'0 0.0
2018-Feb-15 15:30N 25°50' W 080°07'0 0.0
2018-Feb-15 15:00N 25°50' W 080°07'0 0.0
2018-Feb-15 14:26N 25°50' W 080°07'0 0.0
2018-Feb-15 13:58N 25°50' W 080°07'0 0.0
2018-Feb-15 13:31N 25°50' W 080°07'0 0.0
2018-Feb-15 12:50N 25°50' W 080°07'0 0.0
2018-Feb-15 12:20N 25°50' W 080°07'0 0.0
2018-Feb-15 11:53N 25°50' W 080°07'0 0.0
2018-Feb-15 11:29N 25°50' W 080°07'0 0.0
2018-Feb-15 10:58N 25°50' W 080°07'0 0.0
2018-Feb-15 10:30N 25°50' W 080°07'0 0.0
2018-Feb-15 10:00N 25°50' W 080°07'0 0.0
2018-Feb-15 09:30N 25°50' W 080°07'0 0.0
2018-Feb-15 08:51N 25°50' W 080°07'0 0.0
2018-Feb-15 08:24N 25°50' W 080°07'0 0.0
2018-Feb-15 08:00N 25°50' W 080°07'0 0.0
2018-Feb-15 07:30N 25°50' W 080°07'0 0.0
2018-Feb-15 07:00N 25°50' W 080°07'0 0.0
2018-Feb-15 06:21N 25°50' W 080°07'0 0.0
2018-Feb-15 05:51N 25°50' W 080°07'0 0.0
2018-Feb-15 05:21N 25°50' W 080°07'2 4.1
2018-Feb-15 04:51N 25°52' W 080°07'2 5.9
2018-Feb-15 04:30N 25°50' W 080°07'0 0.0
2018-Feb-15 03:54N 25°50' W 080°07'0 0.0
2018-Feb-15 03:30N 25°50' W 080°07'0 0.0
2018-Feb-15 02:59N 25°50' W 080°07'0 0.0
2018-Feb-15 02:26N 25°50' W 080°07'0 0.0
2018-Feb-15 01:59N 25°50' W 080°07'0 0.0
2018-Feb-15 01:26N 25°50' W 080°07'0 0.0
2018-Feb-15 00:59N 25°50' W 080°07'0 0.0
2018-Feb-15 00:26N 25°50' W 080°07'0 0.0
2018-Feb-14 23:56N 25°50' W 080°07'0 0.0
2018-Feb-14 23:29N 25°50' W 080°07'0 0.0
2018-Feb-14 22:59N 25°50' W 080°07'0 0.0
2018-Feb-14 22:29N 25°50' W 080°07'0 0.0
2018-Feb-14 21:56N 25°50' W 080°07'0 0.0
2018-Feb-14 21:31N 25°50' W 080°07'0 0.0
2018-Feb-14 21:00N 25°50' W 080°07'0 0.0
2018-Feb-14 20:31N 25°50' W 080°07'0 0.0
2018-Feb-14 20:00N 25°50' W 080°07'0 0.0
2018-Feb-14 19:31N 25°50' W 080°07'0 0.0
2018-Feb-14 18:58N 25°50' W 080°07'0 0.0
2018-Feb-14 18:30N 25°50' W 080°07'0 0.0
2018-Feb-14 17:58N 25°50' W 080°07'0 0.0
2018-Feb-14 17:31N 25°50' W 080°07'0 0.0
2018-Feb-14 16:52N 25°50' W 080°07'0 0.0
2018-Feb-14 16:25N 25°50' W 080°07'0 0.0
2018-Feb-14 15:55N 25°50' W 080°07'0 0.0
2018-Feb-14 15:28N 25°50' W 080°07'0 0.0
2018-Feb-14 15:01N 25°50' W 080°07'0 0.0
2018-Feb-14 14:31N 25°50' W 080°07'0 0.0
2018-Feb-14 14:00N 25°50' W 080°07'0 0.0
2018-Feb-14 13:28N 25°50' W 080°07'0 0.0
2018-Feb-14 12:56N 25°50' W 080°07'0 0.0
2018-Feb-14 12:29N 25°50' W 080°07'0 0.0
2018-Feb-14 11:59N 25°50' W 080°07'0 0.0
2018-Feb-14 11:29N 25°50' W 080°07'0 0.0
2018-Feb-14 10:56N 25°50' W 080°07'0 0.0
2018-Feb-14 10:29N 25°50' W 080°07'0 0.0
2018-Feb-14 09:59N 25°50' W 080°07'0 0.0
2018-Feb-14 09:29N 25°50' W 080°07'0 0.0
2018-Feb-14 08:59N 25°50' W 080°07'0 0.0
2018-Feb-14 08:26N 25°50' W 080°07'0 0.0
2018-Feb-14 07:59N 25°50' W 080°07'0 0.0
2018-Feb-14 07:26N 25°50' W 080°07'0 0.0
2018-Feb-14 06:59N 25°50' W 080°07'0 0.0
2018-Feb-14 06:29N 25°50' W 080°07'0 0.0
2018-Feb-14 05:59N 25°50' W 080°07'0 0.0
2018-Feb-14 05:29N 25°50' W 080°07'0 0.0
2018-Feb-14 04:56N 25°50' W 080°07'0 0.0
2018-Feb-14 04:29N 25°50' W 080°07'0 0.0
2018-Feb-14 03:59N 25°50' W 080°07'0 0.0
2018-Feb-14 03:26N 25°50' W 080°07'0 0.0
2018-Feb-14 02:59N 25°50' W 080°07'0 0.0
2018-Feb-14 02:26N 25°50' W 080°07'0 0.0
2018-Feb-14 01:59N 25°50' W 080°07'0 0.0
2018-Feb-14 01:29N 25°50' W 080°07'0 0.0
2018-Feb-14 00:59N 25°50' W 080°07'0 0.0
2018-Feb-14 00:29N 25°50' W 080°07'0 0.0
2018-Feb-13 23:59N 25°50' W 080°07'0 0.0
2018-Feb-13 23:29N 25°50' W 080°07'0 0.0
2018-Feb-13 22:59N 25°50' W 080°07'0 0.0
2018-Feb-13 22:29N 25°50' W 080°07'0 0.0
2018-Feb-13 21:56N 25°50' W 080°07'0 0.0
2018-Feb-13 21:29N 25°50' W 080°07'0 0.0
2018-Feb-13 20:59N 25°50' W 080°07'0 0.0
2018-Feb-13 20:29N 25°50' W 080°07'0 0.0
2018-Feb-13 19:59N 25°50' W 080°07'0 0.0
2018-Feb-13 19:29N 25°50' W 080°07'0 0.0
2018-Feb-13 18:50N 25°50' W 080°07'0 0.0
2018-Feb-13 18:26N 25°50' W 080°07'0 0.0
2018-Feb-13 17:56N 25°50' W 080°07'0 0.0
2018-Feb-13 17:29N 25°50' W 080°07'0 0.0
2018-Feb-13 16:55N 25°50' W 080°07'0 0.0
2018-Feb-13 16:29N 25°50' W 080°07'0 0.0
2018-Feb-13 15:52N 25°50' W 080°07'0 0.0
2018-Feb-13 15:28N 25°50' W 080°07'0 0.0
2018-Feb-13 14:55N 25°50' W 080°07'0 0.0
2018-Feb-13 14:22N 25°50' W 080°07'0 0.0
2018-Feb-13 13:52N 25°50' W 080°07'0 0.0
2018-Feb-13 13:28N 25°50' W 080°07'0 0.0
2018-Feb-13 12:58N 25°50' W 080°07'0 0.0
2018-Feb-13 12:28N 25°50' W 080°07'0 0.0
2018-Feb-13 11:55N 25°50' W 080°07'0 0.0
2018-Feb-13 11:25N 25°50' W 080°07'0 0.0
2018-Feb-13 10:55N 25°50' W 080°07'0 0.0
2018-Feb-13 10:28N 25°50' W 080°07'0 0.0
2018-Feb-13 09:58N 25°50' W 080°07'0 0.0
2018-Feb-13 09:28N 25°50' W 080°07'0 0.0
2018-Feb-13 08:58N 25°50' W 080°07'0 0.0
2018-Feb-13 08:25N 25°50' W 080°07'0 0.0
2018-Feb-13 07:58N 25°50' W 080°07'0 0.0
2018-Feb-13 07:28N 25°50' W 080°07'0 0.0
2018-Feb-13 06:58N 25°50' W 080°07'0 0.0
2018-Feb-13 06:28N 25°50' W 080°07'0 0.0
2018-Feb-13 05:58N 25°50' W 080°07'0 0.0
2018-Feb-13 05:28N 25°50' W 080°07'0 0.0
2018-Feb-13 04:58N 25°50' W 080°07'0 0.0
2018-Feb-13 04:22N 25°50' W 080°07'0 0.0
2018-Feb-13 03:58N 25°50' W 080°07'0 0.0
2018-Feb-13 03:19N 25°50' W 080°07'0 0.0
2018-Feb-13 02:58N 25°50' W 080°07'0 0.0
2018-Feb-13 02:25N 25°50' W 080°07'0 0.0
2018-Feb-13 01:58N 25°50' W 080°07'0 0.0
2018-Feb-13 01:22N 25°50' W 080°07'0 0.0
2018-Feb-13 00:59N 25°50' W 080°07'0 0.0
2018-Feb-13 00:29N 25°50' W 080°07'0 0.0
2018-Feb-12 23:53N 25°50' W 080°07'0 0.0
2018-Feb-12 23:26N 25°50' W 080°07'0 0.0
2018-Feb-12 22:59N 25°50' W 080°07'0 0.0
2018-Feb-12 22:29N 25°50' W 080°07'0 0.0
2018-Feb-12 22:00N 25°50' W 080°07'0 0.0
2018-Feb-12 21:30N 25°50' W 080°07'0 0.0
2018-Feb-12 20:59N 25°50' W 080°07'0 0.0
2018-Feb-12 20:29N 25°50' W 080°07'0 0.0
2018-Feb-12 19:56N 25°50' W 080°07'0 0.0
2018-Feb-12 19:23N 25°50' W 080°07'0 0.0
2018-Feb-12 18:56N 25°50' W 080°07'  

Dump ship's entire track history